Date,TemperatureHighF,TemperatureAvgF,TemperatureLowF,DewpointHighF,DewpointAvgF,DewpointLowF,HumidityHigh,HumidityAvg,HumidityLow,PressureMaxIn,PressureMinIn,WindSpeedMaxMPH,WindSpeedAvgMPH,GustSpeedMaxMPH,PrecipitationSumIn
2014-1-1,14,10,7,11,6,3,84,79,76,0.00,40.00,19,13,24,0.01
2014-1-2,12,7,-5,4,0,-11,75,71,67,0.00,40.00,16,11,21,0.00
2014-1-3,22,13,-8,13,4,-14,79,66,57,0.00,40.00,26,15,39,0.00
2014-1-4,32,24,20,24,13,-100,87,68,61,0.00,40.00,21,15,34,1.09
2014-1-5,19,9,-10,12,-1,-19,71,63,55,0.00,40.00,31,20,43,0.00
2014-1-6,-8,-11,-16,-15,-21,-25,68,61,56,0.00,40.00,24,19,37,0.00
2014-1-7,8,0,-9,-3,-9,-16,73,67,56,0.00,40.00,14,7,17,0.00
2014-1-8,12,3,-4,0,-5,-9,78,70,53,0.00,40.00,9,3,10,0.00
2014-1-9,26,10,1,23,4,-6,87,76,66,0.00,40.00,9,6,11,0.00
2014-1-10,38,34,27,35,31,24,88,88,88,0.00,40.00,15,9,21,1.48
2014-1-11,35,32,30,32,24,-100,88,80,64,0.00,40.00,21,14,31,0.00
2014-1-12,46,35,26,32,26,23,87,72,44,0.00,40.00,22,12,35,0.00
2014-1-13,40,33,29,32,28,23,86,79,58,0.00,40.00,18,9,26,0.00
2014-1-14,34,28,18,30,21,12,86,73,61,0.00,40.00,34,20,45,3.68
2014-1-15,23,16,9,15,8,4,78,72,60,0.00,40.00,16,11,24,0.01
2014-1-16,37,25,11,31,15,2,80,66,53,0.00,40.00,29,19,42,1.96
2014-1-17,16,11,7,7,3,-2,78,69,62,0.00,40.00,22,15,29,0.04
2014-1-18,24,15,8,19,8,-100,87,81,78,0.00,40.00,20,10,24,0.08
2014-1-19,40,24,9,30,18,6,86,78,59,0.00,40.00,20,14,29,0.00
2014-1-20,36,28,13,30,23,9,89,80,67,0.00,40.00,29,12,40,0.28
2014-1-21,14,5,-1,10,-4,-10,84,63,54,0.00,40.00,25,12,32,0.00
2014-1-22,16,10,-1,8,2,-10,75,69,61,0.00,40.00,22,14,34,0.00
2014-1-23,2,-4,-7,-9,-12,-16,73,65,59,0.00,40.00,22,13,27,0.00
2014-1-24,32,16,-4,28,5,-10,84,62,48,0.00,40.00,29,18,41,1.18
2014-1-25,34,17,10,31,2,-100,88,56,42,0.00,40.00,30,16,37,4.75
2014-1-26,37,23,1,27,15,-5,88,73,55,0.00,40.00,37,21,52,0.78
2014-2-1,22,17,13,19,9,-100,88,80,70,0.00,40.00,17,8,21,0.05
2014-2-2,14,5,-7,9,-3,-13,79,71,58,0.00,40.00,15,8,19,0.00
2014-2-3,22,6,-9,8,-5,-14,80,62,42,0.00,40.00,9,5,9,0.00
2014-2-4,18,14,9,14,8,-2,88,75,59,0.00,40.00,17,8,26,0.10
2014-2-5,17,10,-2,14,6,-9,89,81,73,0.00,40.00,22,15,26,0.29
2014-2-6,6,-3,-11,-6,-10,-15,79,70,57,0.00,40.00,16,10,19,0.00
2014-2-7,16,4,-9,0,-6,-14,77,63,49,0.00,40.00,13,8,16,0.00
2014-2-8,20,14,9,14,9,-1,85,77,62,0.00,40.00,9,5,12,0.14
2014-2-9,15,5,-4,11,0,-11,87,78,66,0.00,40.00,15,9,19,0.00
2014-2-10,5,-5,-14,-6,-12,-19,78,70,59,0.00,40.00,12,7,15,0.00
2014-2-11,14,-1,-17,-1,-11,-22,78,63,46,0.00,40.00,13,6,16,0.00
2014-2-12,26,18,4,13,6,-5,71,59,46,0.00,40.00,11,6,15,0.00
2014-2-13,37,22,15,29,13,8,72,66,62,0.00,40.00,29,13,34,3.33
2014-2-14,17,12,6,11,6,0,85,77,68,0.00,40.00,16,11,22,0.10
2014-2-15,19,13,-2,15,7,-6,85,76,59,0.00,40.00,13,8,16,0.01
2014-2-16,25,21,18,15,14,12,86,71,58,0.00,40.00,19,9,28,0.00
2014-2-17,32,26,21,29,22,13,88,82,70,0.00,40.00,24,15,30,0.18
2014-2-18,49,34,19,32,26,16,85,72,44,0.00,40.00,17,12,24,27.22
2014-2-19,43,36,26,33,29,23,87,76,59,0.00,40.00,15,8,19,48.62
2014-2-20,44,36,34,41,33,29,88,86,77,0.00,40.00,39,19,52,2.29
2014-2-21,36,29,22,28,20,13,83,69,47,0.00,40.00,34,23,47,0.03
2014-2-22,31,25,17,21,12,-100,82,64,49,0.00,40.00,14,8,16,0.00
2014-2-24,21,17,11,9,7,5,79,66,51,0.00,40.00,17,10,22,0.01
2014-2-25,15,10,5,11,3,-2,86,73,54,0.00,40.00,21,14,28,0.00
2014-2-26,20,7,-3,9,-3,-10,73,62,49,0.00,40.00,28,16,35,0.00
2014-2-27,13,6,0,1,-7,-10,65,56,43,0.00,40.00,28,11,34,0.00
2014-2-28,34,18,2,22,6,-6,78,60,44,0.00,40.00,17,10,23,0.00
2014-3-1,26,16,7,22,7,-100,88,75,59,0.00,40.00,16,14,20,0.86
2014-3-2,6,2,-6,3,-8,-16,85,63,49,0.00,40.00,18,15,23,0.00
2014-3-3,14,2,-10,1,-9,-18,67,61,47,0.00,40.00,12,5,13,0.00
2014-3-4,33,20,10,13,9,2,74,61,37,0.00,40.00,12,7,17,0.00
2014-3-5,24,21,17,17,15,11,87,77,73,0.00,40.00,18,12,24,0.01
2014-3-6,32,21,9,19,14,5,85,73,57,0.00,40.00,11,7,14,0.00
2014-3-7,49,35,23,35,27,19,86,72,47,0.00,40.00,12,9,19,0.00
2014-3-8,35,31,26,31,23,-100,88,81,74,0.00,40.00,12,8,16,0.32
2014-3-9,43,32,21,34,25,17,87,75,55,0.00,40.00,17,10,24,0.00
2014-3-16,31,25,20,28,17,11,88,70,49,0.00,40.00,19,13,29,0.05
2014-3-17,40,25,17,20,9,-100,80,59,34,0.00,40.00,15,7,21,0.00
2014-3-18,53,44,33,40,34,24,81,68,53,0.00,40.00,21,13,29,0.04
2014-3-19,44,38,32,40,33,26,88,83,68,0.00,40.00,24,14,32,0.00
2014-3-20,49,38,29,33,23,-100,85,65,39,0.00,40.00,9,4,13,0.21
2014-3-21,62,43,32,39,30,-100,84,67,41,0.00,40.00,27,12,35,0.00
2014-3-22,37,31,25,30,19,-100,84,67,41,0.00,40.00,20,15,28,0.00
2014-3-28,44,38,35,40,33,31,88,83,73,0.00,40.00,30,11,39,0.98
2014-3-29,50,40,34,32,25,-100,86,64,41,0.00,40.00,10,6,16,0.00
2014-3-30,64,48,33,39,33,28,84,60,34,0.00,40.00,19,13,29,0.00
2014-3-31,68,57,46,49,40,37,83,56,35,0.00,40.00,30,19,43,0.00
2014-4-1,49,37,27,36,23,-100,77,63,42,0.00,40.00,32,16,43,0.00
2014-4-2,49,39,30,35,30,27,87,72,51,0.00,40.00,22,10,30,0.00
2014-4-3,41,38,36,38,35,33,89,87,80,0.00,40.00,21,16,28,1.53
2014-4-4,42,38,36,38,31,26,88,76,61,0.00,40.00,24,16,35,0.00
2014-4-5,54,40,28,34,24,-100,85,60,33,0.00,40.00,8,4,12,0.00
2014-4-6,60,47,37,35,31,27,78,56,35,0.00,40.00,11,7,19,0.00
2014-4-7,61,52,39,41,36,29,79,56,39,0.00,40.00,16,8,21,0.00
2014-4-11,75,58,38,33,30,28,73,39,19,0.00,40.00,22,9,29,0.00
2014-4-12,82,66,56,59,42,-100,62,47,38,0.00,40.00,21,13,31,0.00
2014-4-13,69,60,48,59,55,44,87,83,64,0.00,40.00,23,10,32,0.66
2014-4-14,47,36,30,43,29,22,88,78,65,0.00,40.00,32,18,45,0.03
2014-4-15,42,34,26,22,16,10,81,51,26,0.00,40.00,17,9,21,0.00
2014-4-16,57,45,31,28,25,16,66,46,30,0.00,40.00,31,18,42,0.00
2014-4-17,55,48,39,38,34,27,83,60,45,0.00,40.00,17,11,29,0.00
2014-4-18,63,46,30,35,30,24,87,59,23,0.00,40.00,9,5,12,0.00
2014-4-19,74,52,37,37,27,-100,76,47,25,0.00,40.00,14,11,25,0.00
2014-4-20,82,68,56,47,43,36,54,41,29,0.00,40.00,14,10,21,0.00
2014-4-21,66,62,55,61,52,43,84,69,54,0.00,40.00,16,8,22,0.07
2014-4-26,69,53,45,42,32,-100,77,50,32,0.00,40.00,28,14,39,0.00
2014-4-27,68,53,42,54,43,34,87,70,40,0.00,40.00,26,19,37,1.53
2014-4-28,55,52,49,51,48,45,87,85,78,0.00,40.00,28,16,36,0.89
2014-4-29,58,51,48,49,46,44,87,82,65,0.00,40.00,17,9,22,0.01
2014-4-30,47,43,38,43,36,35,87,77,65,0.00,40.00,17,13,22,0.04
2014-5-1,49,44,41,42,39,37,87,81,68,0.00,40.00,24,15,28,0.35
2014-5-2,61,51,44,43,40,37,87,69,40,0.00,40.00,16,11,24,0.04
2014-5-3,70,56,42,47,33,-100,83,51,26,0.00,40.00,22,12,32,0.00
2014-5-4,59,53,47,43,38,31,73,56,40,0.00,40.00,20,8,25,0.00
2014-5-18,70,58,46,42,38,34,67,48,28,0.00,40.00,11,7,16,0.00
2014-5-19,73,56,52,60,35,-100,82,57,45,0.00,40.00,25,13,34,0.11
2014-5-20,85,74,65,65,57,-100,82,60,46,0.00,40.00,16,7,28,0.00
2014-5-21,86,75,65,69,59,49,87,61,33,0.00,40.00,14,7,21,0.94
2014-5-22,73,58,53,52,42,-100,84,64,34,0.00,40.00,12,7,16,0.00
2014-5-23,76,66,51,51,46,42,82,51,29,0.00,40.00,10,5,14,0.00
2014-5-24,76,68,53,50,44,-100,74,46,38,0.00,40.00,9,6,16,0.00
2014-5-25,80,70,56,63,54,47,76,56,41,0.00,40.00,11,7,20,0.00
2014-5-26,87,73,66,71,66,61,85,78,48,0.00,40.00,11,5,18,0.40
2014-5-27,85,74,67,70,66,63,85,75,53,0.00,40.00,12,6,17,0.00
2014-5-28,79,70,66,69,64,57,85,80,62,0.00,40.00,11,6,16,0.00
2014-5-29,82,70,58,67,59,53,82,69,53,0.00,40.00,15,9,20,0.00
2014-5-30,85,74,63,67,58,51,81,59,35,0.00,40.00,12,7,19,0.00
2014-5-31,87,71,62,67,53,-100,84,61,44,0.00,40.00,14,8,22,0.00
2014-6-1,89,81,73,70,67,64,83,65,45,0.00,40.00,14,9,26,0.00
2014-6-2,83,77,68,68,66,62,87,69,52,0.00,40.00,22,12,29,0.00
2014-6-3,82,72,64,63,57,51,83,63,35,0.00,40.00,10,6,15,0.02
2014-6-4,69,66,63,61,59,57,87,79,67,0.00,40.00,13,9,19,0.14
2014-6-5,77,72,67,55,49,44,64,46,31,0.00,40.00,10,6,17,0.00
2014-6-6,84,76,60,58,56,55,82,51,41,0.00,40.00,6,4,11,0.00
2014-6-8,69,67,63,59,58,58,83,73,69,0.00,40.00,10,6,14,0.00
2014-6-9,78,68,55,58,50,44,83,55,38,0.00,40.00,9,5,16,0.00
2014-6-10,69,64,60,60,58,54,86,80,71,0.00,40.00,15,10,26,0.16
2014-6-11,76,67,60,60,58,56,87,75,54,0.00,40.00,13,9,20,0.14
2014-6-26,81,71,67,71,65,62,87,81,61,0.00,40.00,11,6,17,0.00
2014-6-27,86,79,70,70,67,65,86,69,53,0.00,40.00,17,9,23,0.00
2014-6-28,83,72,71,72,61,-100,86,75,67,0.00,40.00,15,10,24,0.38
2014-6-29,85,75,67,74,68,63,87,80,64,0.00,40.00,12,6,24,0.00
2014-6-30,87,73,66,73,66,62,89,81,56,0.00,40.00,24,8,31,2.58
2014-7-1,79,70,63,62,60,55,89,73,47,0.00,40.00,16,10,25,0.00
2014-7-2,66,62,60,56,53,50,85,72,58,0.00,40.00,13,9,18,0.03
2014-7-17,80,70,55,56,52,49,85,57,34,0.00,40.00,7,3,11,0.00
2014-7-18,81,70,61,57,54,52,78,59,38,0.00,40.00,8,4,12,0.00
2014-7-19,81,73,63,59,57,56,79,59,42,0.00,40.00,7,4,11,0.00
2014-7-20,83,72,63,62,59,57,81,64,45,0.00,40.00,10,5,17,0.00
2014-7-21,86,73,65,67,62,60,83,70,47,0.00,40.00,11,7,17,0.00
2014-7-22,89,80,73,77,70,65,80,72,60,0.00,40.00,11,7,21,0.00
2014-7-23,78,71,66,62,55,50,87,60,39,0.00,40.00,15,8,21,0.00
2014-7-24,80,70,59,57,54,49,81,60,36,0.00,40.00,6,3,11,0.00
2014-7-25,75,67,61,63,59,54,88,76,58,0.00,40.00,14,6,26,0.24
2014-7-26,81,69,67,69,61,60,87,71,62,0.00,40.00,9,4,14,0.00
2014-7-27,78,72,68,67,60,51,88,69,39,0.00,40.00,23,10,32,0.00
2014-8-22,88,79,71,73,71,67,88,77,51,0.00,40.00,32,5,41,0.01
2014-8-23,80,73,71,73,67,67,87,78,66,0.00,40.00,10,5,15,0.42
2014-8-24,94,81,69,73,68,65,87,69,45,0.00,40.00,7,5,11,0.00
2014-8-25,92,83,76,75,72,69,85,71,51,0.00,40.00,9,5,14,0.00
2014-8-26,81,74,68,71,65,58,87,75,47,0.00,40.00,20,5,35,0.44
2014-8-27,78,71,66,63,60,56,86,69,50,0.00,40.00,9,4,12,0.00
2014-8-28,72,68,65,66,62,57,88,80,61,0.00,40.00,10,7,19,0.16
2014-8-29,88,76,69,70,66,64,87,73,48,0.00,40.00,10,7,18,0.00
2014-8-30,82,69,69,66,61,62,87,73,51,0.00,40.00,14,5,21,0.00
2014-8-31,88,72,63,66,63,59,87,75,43,0.00,40.00,9,4,15,0.00
2014-9-1,83,74,65,68,63,60,87,70,48,0.00,40.00,22,11,54,1.01
2014-9-2,81,73,62,61,56,53,87,58,40,0.00,40.00,12,6,19,0.00
2014-9-3,85,73,60,67,61,56,87,68,40,0.00,40.00,12,6,22,0.00
2014-9-4,89,78,69,73,68,65,87,72,57,0.00,40.00,17,9,26,0.01
2014-9-5,81,70,60,71,62,54,86,76,46,0.00,40.00,17,7,21,0.00
2014-9-6,74,58,54,54,48,45,88,69,36,0.00,40.00,7,5,12,0.00
2014-9-7,80,64,54,54,50,46,87,64,32,0.00,40.00,8,4,12,0.00
2014-9-8,74,64,56,58,53,49,78,68,50,0.00,40.00,12,5,27,0.00
2014-9-16,68,51,41,46,40,35,88,70,29,0.00,40.00,6,3,10,0.00
2014-9-17,72,60,48,52,47,43,85,64,41,0.00,40.00,7,4,10,0.00
2014-9-18,73,60,48,53,47,44,88,67,36,0.00,40.00,9,4,13,0.00
2014-9-19,76,63,52,53,49,46,88,64,34,0.00,40.00,10,7,22,0.00
2014-9-20,80,67,63,66,60,54,86,74,52,0.00,40.00,14,7,23,0.00
2014-9-21,66,60,53,54,47,45,85,62,48,0.00,40.00,21,12,30,0.00
2014-9-22,72,56,44,46,42,35,88,64,28,0.00,40.00,6,3,9,0.00
2014-9-24,74,66,56,49,47,45,75,52,35,0.00,40.00,9,5,15,0.00
2014-9-25,80,66,59,54,50,46,78,59,30,0.00,40.00,7,4,11,0.00
2014-9-26,82,67,56,55,53,51,84,64,36,0.00,40.00,9,5,16,0.00
2014-9-27,83,68,58,55,51,51,83,55,32,0.00,40.00,8,5,13,0.00
2014-9-28,84,64,56,55,53,49,87,71,30,0.00,40.00,7,3,7,0.00
2014-9-29,84,66,58,60,54,51,82,67,32,0.00,40.00,10,3,18,0.00
2014-9-30,64,58,53,53,46,43,88,67,48,0.00,40.00,11,8,17,0.00
2014-10-1,72,59,51,60,51,45,84,74,57,0.00,40.00,16,8,21,0.00
2014-10-2,69,65,62,63,60,59,88,84,72,0.00,40.00,9,5,17,0.77
2014-10-3,62,55,42,58,49,23,88,80,44,0.00,40.00,20,12,30,1.40
2014-10-4,51,40,36,30,24,21,61,48,36,0.00,40.00,19,13,27,0.08
2014-10-5,58,47,36,40,32,28,81,58,33,0.00,40.00,19,6,26,0.14
2014-10-6,61,52,44,44,38,29,85,60,29,0.00,40.00,17,8,24,0.00
2014-10-7,67,56,48,46,40,35,85,58,33,0.00,40.00,17,8,25,0.00
2014-10-8,69,53,41,40,35,28,85,55,21,0.00,40.00,12,7,22,0.00
2014-10-9,57,52,48,48,41,29,87,68,41,0.00,40.00,7,4,10,0.20
2014-10-10,58,46,38,35,33,31,82,61,36,0.00,40.00,9,5,13,0.00
2014-10-11,60,40,35,35,30,27,87,67,28,0.00,40.00,6,3,7,0.00
2014-10-12,57,48,37,49,41,32,88,77,57,0.00,40.00,10,6,17,0.00